Terminal Aerodrome Forecast
Issued by NWS Paducah, KY

Home | Current Version | Previous Version | Text Only | Print | Product List | Glossary On
Versions: 1 2 3 4 5 6 7 8 9 10 11 12 13 14 15 16 17 18 19 20
000
FTUS43 KPAH 180643 AAB
TAFPAH
TAF AMD
KPAH 180643Z 1807/1906 00000KT 3SM BR SCT250
      TEMPO 1807/1809 1/4SM FG VV001
     FM180900 00000KT 4SM BR SCT015 BKN035
      TEMPO 1809/1813 1 1/2SM BR BKN015
     FM181300 08005KT P6SM BKN060
     FM190400 09005KT P6SM VCSH OVC040=

USA.gov is the U.S. government's official web portal to all federal, state and local government web resources and services.